• Join FlightAware (Why Join?)
  • Login
  • US Flag 
11:45AM EST


 

Airport Tracker/Info


-or-


 

Live Flight TrackerFlight Track Log ✈ SWA1319 ✈ 26-Apr-2013 ✈ KDAL - KMCI

Flight Track Log - Related Links

Times and Time Zones

All times are in EDT time to prevent confusion due to time zone crossing. See the SWA1319 flight status page for this flight to view local times or setup timezone preferences in your user account.

Time Position Orientation Groundspeed Altitude Reporting Facility
EDT Latitude Longitude Course Direction KTS MPH feet Rate Location/Type
04:21PM 32.7833 -96.7500 128° Southeast 225 259 5,500  Level Dallas / Fort Worth TRACON
04:22PM 32.7833 -96.6833 90° East 290 334 7,900 2,100 Climbing Dallas / Fort Worth TRACON
04:23PM 32.8833 -96.6500 16° North 315 362 10,000 2,100 Climbing Dallas / Fort Worth TRACON
04:25PM 33.0114 -96.7742 321° Northwest 302 348 14,800 2,040 Climbing Fort Worth Center
04:26PM 33.0700 -96.8408 316° Northwest 309 356 16,500 1,620 Climbing Fort Worth Center
04:27PM 33.1558 -96.8997 330° Northwest 342 394 18,100 2,220 Climbing Fort Worth Center
04:28PM 33.2522 -96.9714 328° Northwest 369 425 21,000 2,400 Climbing Fort Worth Center
04:29PM 33.3442 -97.0331 331° Northwest 383 441 23,000 1,800 Climbing Fort Worth Center
04:30PM 33.4569 -97.0350 359° North 394 453 24,600 1,500 Climbing Fort Worth Center
04:31PM 33.5736 -96.9922 17° North 413 475 26,100 1,440 Climbing Fort Worth Center
04:32PM 33.6947 -96.9517 16° North 434 499 27,600 1,380 Climbing Fort Worth Center
04:33PM 33.8175 -96.9133 15° North 450 518 28,900 1,140 Climbing Fort Worth Center
04:34PM 33.9447 -96.8703 16° North 464 534 29,900 1,140 Climbing Fort Worth Center
04:35PM 34.0719 -96.8292 15° North 464 534 31,200 1,080 Climbing Fort Worth Center
04:36PM 34.1822 -96.7933 15° North 464 534 32,100 1,200 Climbing Fort Worth Center
04:37PM 34.3072 -96.7497 16° North 464 534 33,600 1,200 Climbing Fort Worth Center
04:38PM 34.4322 -96.7061 16° North 459 528 34,500 720 Climbing Fort Worth Center
04:39PM 34.5592 -96.6622 16° North 459 528 35,100 240 Climbing Fort Worth Center
04:40PM 34.6842 -96.6231 14° North 459 528 35,100  Level Fort Worth Center
04:41PM 34.8256 -96.5736 16° North 465 535 35,100  Level Fort Worth Center
04:42PM 34.9486 -96.5319 16° North 465 535 35,100  Level Fort Worth Center
04:43PM 35.0753 -96.4903 15° North 465 535 35,100  Level Fort Worth Center
04:44PM 35.2022 -96.4456 16° North 465 535 35,100  Level Fort Worth Center
04:46PM 35.4778 -96.3508 16° North 468 539 35,100  Level Kansas City Center
04:48PM 35.6019 -96.3075 16° North 467 537 35,100  Level Kansas City Center
04:49PM 35.7267 -96.2642 16° North 467 537 35,100  Level Kansas City Center
04:50PM 35.8692 -96.2161 15° North 466 536 35,100  Level Kansas City Center
04:51PM 35.9956 -96.1728 16° North 468 539 35,100  Level Kansas City Center
04:52PM 36.1219 -96.1294 15° North 468 539 35,100  Level Kansas City Center
04:53PM 36.2467 -96.0858 16° North 465 535 35,100  Level Kansas City Center
04:54PM 36.3725 -96.0417 16° North 464 534 35,100  Level Kansas City Center
04:55PM 36.4978 -95.9981 16° North 463 533 35,100  Level Kansas City Center
04:56PM 36.6217 -95.9539 16° North 460 529 35,100  Level Kansas City Center
04:57PM 36.7456 -95.9106 16° North 459 528 35,100  Level Kansas City Center
04:58PM 36.8800 -95.9447 349° North 423 487 35,100  Level Kansas City Center
04:59PM 36.9664 -96.0258 323° Northwest 394 453 35,100  Level Kansas City Center
05:00PM 37.0542 -96.1069 324° Northwest 391 450 35,100  Level Kansas City Center
05:01PM 37.1433 -96.1878 324° Northwest 393 452 35,100  Level Kansas City Center
05:02PM 37.2317 -96.2697 324° Northwest 394 453 35,100  Level Kansas City Center
05:03PM 37.3208 -96.3511 324° Northwest 395 455 35,100 -60 Level Kansas City Center
05:04PM 37.4442 -96.3286 North 450 518 35,000  Descending Kansas City Center
05:05PM 37.5867 -96.2339 28° Northeast 474 545 35,100  Climbing Kansas City Center
05:06PM 37.6853 -96.1586 31° Northeast 490 564 35,100  Level Kansas City Center
05:07PM 37.7817 -96.0019 52° Northeast 489 563 35,100 -300 Level Kansas City Center
05:08PM 37.8669 -95.8594 53° Northeast 498 573 34,600 -1,320 Descending Kansas City Center
05:09PM 37.9528 -95.7206 52° Northeast 496 571 32,400 -1,860 Descending Kansas City Center
05:11PM 38.0450 -95.5745 51° Northeast  Level FlightAware Approximate
05:11PM 38.1311 -95.4603 51° Northeast 469 540 28,900  Level Kansas City Center
05:12PM 38.2367 -95.3439 41° Northeast 458 527 26,700 -1,680 Descending Kansas City Center
05:13PM 38.3442 -95.3508 357° North 418 481 25,500 -1,560 Descending Kansas City Center
05:14PM 38.4489 -95.3519 360° North 399 459 23,600 -2,400 Descending Kansas City Center
05:15PM 38.5753 -95.3031 17° North 422 486 20,600 -2,520 Descending Kansas City Center
05:16PM 38.6819 -95.2622 17° North 418 481 18,400 -2,220 Descending Kansas City Center
05:17PM 38.7978 -95.2167 17° North 392 451 16,200 -2,040 Descending Kansas City Center
05:19PM 38.8919 -95.1803 17° North 372 428 14,300 -2,040 Descending Kansas City Center
05:20PM 38.9997 -95.1375 17° North 366 421 12,100 -1,140 Descending Kansas City Center
05:21PM 39.0597 -95.0597 45° Northeast 323 372 12,000 -120 Descending Kansas City Center
05:22PM 39.1250 -94.9675 48° Northeast 315 362 11,900 -540 Descending Kansas City Center
05:23PM 39.1814 -94.8864 48° Northeast 318 366 11,000 -780 Descending Kansas City Center
05:24PM 39.2503 -94.8506 22° Northeast 240 276 10,400 -1,020 Descending Kansas City Center
05:25PM 39.3117 -94.8297 15° North 238 274 9,000 -1,560 Descending Kansas City Center
05:26PM 39.3833 -94.8117 11° North 235 270 7,200 -1,680 Descending Kansas City Center
05:27PM 39.4442 -94.7967 11° North 233 268 5,600 -1,440 Descending Kansas City Center
05:28PM 39.4969 -94.7550 31° Northeast 217 250 4,200 -1,260 Descending Kansas City Center
05:29PM 39.4897 -94.6869 98° East 201 231 3,100 -600 Descending Kansas City Center
05:30PM 39.4381 -94.6864 180° South 167 192 3,000 -300 Descending Kansas City Center
05:31PM 39.3969 -94.6989 193° South 159 183 2,500 -660 Descending Kansas City Center
05:32PM 39.3583 -94.7103 193° South 130 150 1,700 -720 Descending Kansas City Center
05:33PM 39.3244 -94.7203 193° South 129 148 1,100 -360 Descending Kansas City Center
05:34PM 39.2906 -94.7303 193° South 130 150 1,000 -120 Descending Kansas City Center